Time;durP1;ratioP1;P1;durP2;ratioP2;P2;SDS_P1;SDS_P2;PMS_P1;PMS_P2;Temp;Humidity;BMP_temperature;BMP_pressure;BME280_temperature;BME280_humidity;BME280_pressure;Samples;Min_cycle;Max_cycle;Signal;HPM_P1;HPM_P2
2024/01/31 00:01:44;;;;;;;41.25;21.30;;;;;;;1.62;69.17;101019.56;6274505;22;20000;-59
2024/01/31 00:04:09;;;;;;;39.97;21.05;;;;;;;1.53;69.19;101011.84;6274668;22;20014;-54
2024/01/31 00:06:35;;;;;;;37.50;20.65;;;;;;;1.51;69.97;101003.09;6275872;22;20079;-58
2024/01/31 00:09:00;;;;;;;42.63;22.77;;;;;;;1.62;69.36;101026.59;6276142;22;20034;-58
2024/01/31 00:11:30;;;;;;;40.33;21.75;;;;;;;1.59;69.34;101014.34;6275994;22;20423;-53
2024/01/31 00:13:56;;;;;;;43.10;22.23;;;;;;;1.57;69.36;101019.66;6276046;22;20086;-58
2024/01/31 00:16:22;;;;;;;39.13;20.88;;;;;;;1.64;69.21;101019.50;6276010;22;20004;-55
2024/01/31 00:18:49;;;;;;;38.85;21.70;;;;;;;1.36;69.67;100970.91;6275779;22;20106;-58
2024/01/31 00:21:16;;;;;;;38.05;20.63;;;;;;;1.66;69.49;101026.50;6275699;22;19995;-56
2024/01/31 00:23:41;;;;;;;33.78;19.15;;;;;;;1.66;69.55;101018.56;6276138;22;20004;-56
2024/01/31 00:26:07;;;;;;;36.20;19.88;;;;;;;1.73;69.08;101024.56;6275894;22;20053;-58
2024/01/31 00:28:32;;;;;;;36.33;20.42;;;;;;;1.73;68.70;101029.84;6276563;22;19996;-55
2024/01/31 00:30:58;;;;;;;32.17;18.58;;;;;;;1.76;69.17;101035.06;6275981;22;20058;-52
2024/01/31 00:33:23;;;;;;;36.72;19.65;;;;;;;1.70;68.92;101022.88;6275794;22;20014;-56
2024/01/31 00:35:49;;;;;;;38.58;20.65;;;;;;;1.49;68.72;100984.69;6277329;22;20010;-56
2024/01/31 00:38:14;;;;;;;43.17;20.77;;;;;;;1.56;69.00;101007.38;6277923;22;20293;-56
2024/01/31 00:40:40;;;;;;;38.25;20.85;;;;;;;1.67;69.31;101019.44;6277893;22;20011;-59
2024/01/31 00:43:06;;;;;;;40.75;21.60;;;;;;;1.66;69.17;101026.50;6277612;22;20015;-60
2024/01/31 00:45:31;;;;;;;39.33;22.58;;;;;;;1.67;69.49;101015.03;6278276;22;20039;-58
2024/01/31 00:47:57;;;;;;;38.47;21.10;;;;;;;1.73;68.82;101014.00;6276936;22;20285;-59
2024/01/31 00:50:22;;;;;;;37.90;20.83;;;;;;;1.78;68.86;101014.75;6277920;22;20296;-60
2024/01/31 00:52:48;;;;;;;41.08;21.02;;;;;;;1.85;68.46;101007.56;6277321;22;20445;-58
2024/01/31 00:55:13;;;;;;;41.20;21.63;;;;;;;1.80;68.45;101009.44;6277747;22;20026;-59
2024/01/31 00:57:39;;;;;;;39.20;20.45;;;;;;;1.77;68.66;101004.22;6278027;22;20003;-55
2024/01/31 01:00:05;;;;;;;42.00;22.30;;;;;;;1.74;69.08;101005.19;6277727;22;20000;-59
2024/01/31 01:02:31;;;;;;;41.90;22.30;;;;;;;1.72;68.97;101001.72;6277913;22;20018;-57
2024/01/31 01:04:57;;;;;;;43.80;22.25;;;;;;;1.66;69.22;100996.56;6277574;22;20007;-60
2024/01/31 01:07:23;;;;;;;42.22;21.73;;;;;;;1.71;69.06;101000.00;6277860;22;20412;-58
2024/01/31 01:09:48;;;;;;;42.03;21.40;;;;;;;1.68;69.89;100990.34;6277753;22;20041;-56
2024/01/31 01:12:15;;;;;;;38.83;21.50;;;;;;;1.74;69.65;101004.31;6277097;22;20399;-57
2024/01/31 01:14:40;;;;;;;40.60;21.20;;;;;;;1.73;69.58;100987.63;6277560;22;20000;-59
2024/01/31 01:17:06;;;;;;;39.47;22.27;;;;;;;1.82;69.59;100987.38;6277711;22;20463;-59
2024/01/31 01:19:31;;;;;;;40.22;21.42;;;;;;;1.70;69.17;100966.56;6277812;22;20082;-59
2024/01/31 01:21:57;;;;;;;38.88;21.50;;;;;;;1.87;68.73;101000.47;6277501;22;20313;-58
2024/01/31 01:24:23;;;;;;;39.83;22.38;;;;;;;1.88;69.10;100991.63;6277407;22;20030;-58
2024/01/31 01:26:49;;;;;;;41.22;21.65;;;;;;;1.53;68.92;100935.28;6277493;22;20292;-57
2024/01/31 01:29:15;;;;;;;40.05;22.48;;;;;;;1.85;68.71;100975.88;6277647;22;20000;-58
2024/01/31 01:31:40;;;;;;;41.30;23.23;;;;;;;1.88;69.40;100990.75;6276983;22;20350;-56
2024/01/31 01:34:06;;;;;;;41.15;23.50;;;;;;;1.86;68.66;100989.03;6277605;22;19999;-54
2024/01/31 01:36:31;;;;;;;43.00;22.02;;;;;;;1.88;68.75;100980.19;6277536;22;20060;-56
2024/01/31 01:38:57;;;;;;;42.25;21.33;;;;;;;1.87;69.00;100992.53;6277573;22;20027;-57
2024/01/31 01:41:22;;;;;;;38.55;20.83;;;;;;;1.58;68.70;100936.91;6276232;22;20065;-56
2024/01/31 01:43:49;;;;;;;37.50;21.27;;;;;;;1.83;69.06;100975.03;6277555;22;20444;-59
2024/01/31 01:46:18;;;;;;;38.03;22.15;;;;;;;1.82;68.88;100963.59;6277327;22;20095;-55
2024/01/31 01:48:45;;;;;;;41.75;20.83;;;;;;;1.45;68.51;100914.41;6277557;22;20066;-57
2024/01/31 01:51:14;;;;;;;39.00;20.00;;;;;;;1.53;68.42;100938.81;6277651;22;20011;-57
2024/01/31 01:53:40;;;;;;;34.80;20.02;;;;;;;1.41;68.67;100916.25;6277231;22;20008;-61
2024/01/31 01:56:08;;;;;;;38.10;20.40;;;;;;;1.64;68.70;100951.75;6276900;22;20003;-54
2024/01/31 01:58:36;;;;;;;34.65;19.13;;;;;;;1.63;68.82;100954.41;6277104;22;19999;-56
2024/01/31 02:01:03;;;;;;;36.55;20.77;;;;;;;1.63;68.65;100959.69;6277007;22;20014;-58
2024/01/31 02:03:31;;;;;;;37.95;21.00;;;;;;;1.58;69.04;100947.47;6277042;22;20012;-57
2024/01/31 02:05:58;;;;;;;37.10;20.85;;;;;;;1.61;69.10;100956.22;6276922;22;20139;-58
2024/01/31 02:08:26;;;;;;;34.83;19.88;;;;;;;1.59;68.68;100953.66;6277181;22;20004;-58
2024/01/31 02:10:52;;;;;;;36.65;20.83;;;;;;;1.49;69.08;100950.38;6277111;22;20027;-60
2024/01/31 02:13:18;;;;;;;37.58;21.13;;;;;;;1.60;68.98;100955.38;6277311;22;20054;-59
2024/01/31 02:15:51;;;;;;;38.00;21.30;;;;;;;1.63;69.67;100946.50;6276792;22;19999;-58
2024/01/31 02:18:36;;;;;;;36.92;20.65;;;;;;;1.36;69.14;100894.38;6276440;22;20007;-59
2024/01/31 02:21:02;;;;;;;42.15;22.00;;;;;;;1.64;69.29;100935.91;6276836;22;19999;-59
2024/01/31 02:23:28;;;;;;;39.72;21.05;;;;;;;1.67;68.42;100937.59;6275716;22;20141;-57
2024/01/31 02:25:53;;;;;;;34.88;20.13;;;;;;;1.61;68.26;100929.81;6277067;22;20074;-60
2024/01/31 02:28:19;;;;;;;43.47;21.85;;;;;;;1.53;68.92;100933.53;6276686;22;20006;-58
2024/01/31 02:30:45;;;;;;;40.55;22.17;;;;;;;1.58;69.12;100929.00;6276073;22;19999;-58
2024/01/31 02:33:10;;;;;;;36.60;20.50;;;;;;;1.53;68.94;100922.97;6276996;22;20102;-56
2024/01/31 02:35:36;;;;;;;40.88;21.98;;;;;;;1.59;68.86;100932.53;6276873;22;20004;-55
2024/01/31 02:38:01;;;;;;;41.60;22.35;;;;;;;1.60;69.16;100923.69;6276640;22;20235;-56
2024/01/31 02:40:30;;;;;;;36.90;21.45;;;;;;;1.60;69.03;100906.97;6276721;22;20018;-55
2024/01/31 02:42:57;;;;;;;38.83;21.30;;;;;;;1.61;68.45;100906.06;6276484;22;20069;-59
2024/01/31 02:45:23;;;;;;;37.42;21.33;;;;;;;1.67;68.69;100911.19;6276612;22;20018;-55
2024/01/31 02:47:49;;;;;;;36.22;20.05;;;;;;;1.68;68.88;100924.34;6276059;22;20308;-56
2024/01/31 02:50:14;;;;;;;41.50;20.77;;;;;;;1.68;68.82;100913.78;6276549;22;19999;-57
2024/01/31 02:52:40;;;;;;;38.05;21.90;;;;;;;1.67;68.22;100898.88;6276014;22;20007;-55
2024/01/31 02:55:06;;;;;;;36.00;20.58;;;;;;;1.70;68.12;100903.22;6276917;22;20079;-53
2024/01/31 02:57:31;;;;;;;36.95;20.83;;;;;;;1.66;68.26;100894.50;6275743;22;20286;-58
2024/01/31 02:59:57;;;;;;;39.90;22.52;;;;;;;1.67;68.54;100892.69;6276367;22;20011;-53
2024/01/31 03:02:22;;;;;;;41.40;23.02;;;;;;;1.71;67.59;100889.09;6276638;22;20389;-56
2024/01/31 03:04:48;;;;;;;46.78;23.95;;;;;;;1.61;68.35;100893.75;6276485;22;20353;-55
2024/01/31 03:07:13;;;;;;;43.33;23.02;;;;;;;1.57;68.49;100882.41;6276796;22;20011;-61
2024/01/31 03:09:39;;;;;;;45.35;24.33;;;;;;;1.61;68.58;100877.91;6276828;22;20000;-58
2024/01/31 03:12:05;;;;;;;41.83;24.13;;;;;;;1.62;68.53;100884.94;6276515;22;20003;-57
2024/01/31 03:14:34;;;;;;;48.97;24.52;;;;;;;1.59;69.03;100877.09;6276447;22;20011;-58
2024/01/31 03:17:01;;;;;;;48.67;24.23;;;;;;;1.63;68.61;100881.38;6276319;22;20000;-55
2024/01/31 03:19:30;;;;;;;47.70;25.70;;;;;;;1.64;68.18;100871.66;6276212;22;20421;-55
2024/01/31 03:21:56;;;;;;;48.33;24.40;;;;;;;1.57;68.91;100876.25;6276499;22;20335;-59
2024/01/31 03:24:25;;;;;;;49.72;25.90;;;;;;;1.61;68.92;100871.75;6276107;22;20004;-58
2024/01/31 03:26:51;;;;;;;47.10;26.00;;;;;;;1.62;68.35;100881.41;6275148;22;20396;-57
2024/01/31 03:29:17;;;;;;;44.75;25.25;;;;;;;1.69;68.88;100872.44;6276161;22;20061;-54
2024/01/31 03:31:42;;;;;;;46.75;25.23;;;;;;;1.63;68.32;100865.53;6276914;22;20464;-56
2024/01/31 03:34:08;;;;;;;45.60;26.00;;;;;;;1.67;68.23;100855.75;6276261;22;20043;-57
2024/01/31 03:36:35;;;;;;;47.38;26.13;;;;;;;1.39;68.60;100806.34;6276208;22;20269;-55
2024/01/31 03:39:01;;;;;;;50.13;26.77;;;;;;;1.49;68.39;100813.13;6276272;22;20027;-59
2024/01/31 03:41:27;;;;;;;49.13;26.33;;;;;;;1.71;68.30;100857.41;6276288;22;20404;-61
2024/01/31 03:43:55;;;;;;;50.78;27.27;;;;;;;1.68;68.21;100861.00;6276387;22;20008;-58
2024/01/31 03:46:21;;;;;;;47.33;25.65;;;;;;;1.66;68.63;100849.59;6274549;22;20417;-58
2024/01/31 03:48:48;;;;;;;46.45;26.20;;;;;;;1.67;68.17;100831.97;6276148;22;20004;-59
2024/01/31 03:51:20;;;;;;;47.70;25.25;;;;;;;1.74;68.58;100835.31;6276039;22;20012;-58
2024/01/31 03:53:49;;;;;;;47.53;25.80;;;;;;;1.72;68.39;100833.59;6276028;22;20003;-62
2024/01/31 03:56:16;;;;;;;44.97;24.77;;;;;;;1.63;68.22;100823.31;6276357;22;20060;-59
2024/01/31 03:58:43;;;;;;;47.60;25.55;;;;;;;1.71;68.49;100825.72;6276484;22;20012;-55
2024/01/31 04:01:13;;;;;;;49.67;25.48;;;;;;;1.68;68.61;100820.50;6276037;22;20007;-58
2024/01/31 04:03:39;;;;;;;45.53;25.00;;;;;;;1.63;68.20;100812.75;6276152;22;20031;-57
2024/01/31 04:06:05;;;;;;;46.38;25.60;;;;;;;1.61;68.40;100819.84;6275854;22;20293;-58
2024/01/31 04:08:30;;;;;;;44.05;24.90;;;;;;;1.63;68.54;100830.34;6275572;22;20004;-57
2024/01/31 04:10:56;;;;;;;42.40;23.60;;;;;;;1.46;68.30;100778.91;6275759;22;20404;-57
2024/01/31 04:13:21;;;;;;;44.35;23.70;;;;;;;1.71;68.49;100815.16;6275328;22;20435;-60
2024/01/31 04:15:47;;;;;;;44.42;23.70;;;;;;;1.72;68.11;100806.34;6274949;22;20003;-62
2024/01/31 04:18:13;;;;;;;49.08;24.05;;;;;;;1.49;68.63;100780.56;6275974;22;20007;-61
2024/01/31 04:20:38;;;;;;;45.40;24.27;;;;;;;1.60;68.54;100797.00;6274756;22;20090;-57
2024/01/31 04:23:05;;;;;;;44.30;23.70;;;;;;;1.61;68.78;100803.13;6275493;22;19995;-57
2024/01/31 04:25:31;;;;;;;48.13;24.17;;;;;;;1.65;68.63;100799.47;6275353;22;20474;-57
2024/01/31 04:27:57;;;;;;;47.80;24.95;;;;;;;1.34;68.71;100744.91;6275877;22;19995;-58
2024/01/31 04:30:22;;;;;;;48.40;25.08;;;;;;;1.44;68.81;100754.28;6275925;22;20000;-57
2024/01/31 04:32:48;;;;;;;46.45;24.13;;;;;;;1.62;69.16;100781.97;6274768;22;20034;-63
2024/01/31 04:35:14;;;;;;;47.28;23.85;;;;;;;1.71;68.84;100792.25;6275610;22;20078;-59
2024/01/31 04:37:39;;;;;;;45.15;22.13;;;;;;;1.68;68.86;100773.88;6275547;22;20000;-58
2024/01/31 04:40:06;;;;;;;51.42;24.20;;;;;;;1.73;69.10;100781.66;6275791;22;20073;-59
2024/01/31 04:42:32;;;;;;;45.30;21.88;;;;;;;1.64;69.18;100760.78;6275240;22;20003;-58
2024/01/31 04:44:57;;;;;;;45.78;22.05;;;;;;;1.66;68.61;100780.97;6275583;22;20004;-59
2024/01/31 04:47:25;;;;;;;48.50;22.00;;;;;;;1.77;68.91;100798.28;6275750;22;20064;-56
2024/01/31 04:49:52;;;;;;;50.50;23.05;;;;;;;1.72;68.70;100779.94;6274355;22;20019;-57
2024/01/31 04:52:18;;;;;;;44.60;21.90;;;;;;;1.72;68.87;100780.78;6275372;22;20049;-59
2024/01/31 04:54:43;;;;;;;45.65;22.10;;;;;;;1.73;68.93;100773.75;6275077;22;20004;-57
2024/01/31 04:57:09;;;;;;;43.72;22.27;;;;;;;1.69;69.26;100772.13;6275169;22;20008;-62
2024/01/31 04:59:38;;;;;;;47.33;23.70;;;;;;;1.67;69.29;100755.41;6275473;22;20008;-59
2024/01/31 05:02:06;;;;;;;45.60;21.95;;;;;;;1.56;69.25;100746.03;6275062;22;20000;-58
2024/01/31 05:04:33;;;;;;;45.90;22.83;;;;;;;1.75;69.37;100764.00;6275094;22;20008;-58
2024/01/31 05:06:59;;;;;;;47.85;22.75;;;;;;;1.44;69.21;100717.34;6275511;22;20037;-57
2024/01/31 05:09:25;;;;;;;44.22;22.38;;;;;;;1.78;69.20;100771.84;6275141;22;19999;-58
2024/01/31 05:11:51;;;;;;;47.50;22.33;;;;;;;1.81;68.82;100769.09;6274404;22;20031;-58
2024/01/31 05:14:17;;;;;;;47.35;22.25;;;;;;;1.81;69.09;100776.16;6274958;22;20061;-52
2024/01/31 05:16:43;;;;;;;48.08;22.98;;;;;;;1.82;69.16;100770.84;6274990;22;20385;-57
2024/01/31 05:19:14;;;;;;;48.53;22.50;;;;;;;1.83;69.20;100777.00;6275351;22;20000;-60
2024/01/31 05:21:50;;;;;;;45.72;21.38;;;;;;;1.96;68.82;100766.94;6276386;22;20102;-59
2024/01/31 05:24:17;;;;;;;45.10;21.00;;;;;;;1.88;68.52;100759.22;6277061;22;20018;-55
2024/01/31 05:26:44;;;;;;;46.53;20.65;;;;;;;1.68;68.42;100717.56;6277276;22;20037;-62
2024/01/31 05:29:10;;;;;;;44.00;19.83;;;;;;;1.86;68.45;100746.06;6276858;22;20021;-59
2024/01/31 05:31:35;;;;;;;40.10;19.30;;;;;;;1.89;68.27;100741.59;6276648;22;20000;-57
2024/01/31 05:34:01;;;;;;;38.83;18.75;;;;;;;1.86;68.18;100742.56;6276492;22;20046;-56
2024/01/31 05:36:27;;;;;;;44.90;18.88;;;;;;;1.84;67.94;100732.03;6276688;22;20116;-59
2024/01/31 05:38:52;;;;;;;35.88;18.08;;;;;;;1.84;68.38;100734.69;6276543;22;20000;-60
2024/01/31 05:41:18;;;;;;;34.75;17.73;;;;;;;1.55;68.15;100683.63;6277531;22;20073;-57
2024/01/31 05:43:45;;;;;;;35.13;17.55;;;;;;;1.91;67.88;100729.22;6276024;22;20011;-59
2024/01/31 05:46:10;;;;;;;34.83;16.85;;;;;;;1.85;68.30;100714.44;6275880;22;20012;-59
2024/01/31 05:48:36;;;;;;;32.65;15.75;;;;;;;1.91;67.83;100726.56;6276525;22;20179;-56
2024/01/31 05:51:02;;;;;;;34.40;16.20;;;;;;;1.90;68.05;100723.06;6276051;22;19996;-58
2024/01/31 05:53:27;;;;;;;36.15;17.02;;;;;;;1.95;67.68;100721.16;6276239;22;20050;-59
2024/01/31 05:55:53;;;;;;;41.85;17.08;;;;;;;1.92;67.92;100717.72;6276453;22;20079;-58
2024/01/31 05:58:18;;;;;;;37.35;18.40;;;;;;;1.86;68.34;100703.81;6276194;22;20081;-52
2024/01/31 06:00:48;;;;;;;37.50;18.35;;;;;;;1.94;68.25;100705.38;6276914;22;20019;-51
2024/01/31 06:03:15;;;;;;;38.28;17.13;;;;;;;1.91;67.93;100689.59;6276725;22;19999;-53
2024/01/31 06:05:41;;;;;;;34.78;17.20;;;;;;;1.89;67.96;100681.75;6276367;22;20290;-51
2024/01/31 06:08:07;;;;;;;35.83;16.48;;;;;;;1.98;68.03;100686.72;6277248;22;20086;-51
2024/01/31 06:10:33;;;;;;;35.25;17.80;;;;;;;1.93;68.21;100686.00;6274977;22;20336;-55
2024/01/31 06:12:59;;;;;;;33.08;16.15;;;;;;;1.97;67.98;100676.22;6275576;22;20443;-53
2024/01/31 06:15:25;;;;;;;37.17;16.67;;;;;;;1.90;68.02;100661.47;6276869;22;19995;-60
2024/01/31 06:17:51;;;;;;;34.72;17.20;;;;;;;1.99;68.14;100669.13;6277233;22;20056;-57
2024/01/31 06:20:17;;;;;;;40.17;16.98;;;;;;;2.00;68.31;100668.19;6250022;22;20122;-58
2024/01/31 06:22:42;;;;;;;36.53;16.60;;;;;;;1.85;68.11;100628.13;6275348;22;20035;-58
2024/01/31 06:25:08;;;;;;;37.13;16.52;;;;;;;1.94;68.47;100642.84;6275548;22;19996;-55
2024/01/31 06:27:36;;;;;;;36.78;17.58;;;;;;;2.05;68.06;100655.69;6276483;22;20014;-60
2024/01/31 06:30:03;;;;;;;35.53;17.00;;;;;;;2.06;68.00;100646.88;6276117;22;20050;-58
2024/01/31 06:32:37;;;;;;;36.35;17.00;;;;;;;1.80;68.28;100598.38;6275974;22;20004;-59
2024/01/31 06:35:03;;;;;;;36.60;16.75;;;;;;;2.10;68.36;100643.19;6276903;22;20035;-56
2024/01/31 06:37:30;;;;;;;36.13;16.60;;;;;;;2.14;67.87;100642.19;6276167;22;20083;-60
2024/01/31 06:50:32;;;;;;;38.35;18.63;;;;;;;1.36;70.53;100555.75;5086029;28;20370;-59
2024/01/31 06:52:57;;;;;;;39.20;19.17;;;;;;;2.00;69.68;100616.22;5086852;27;20040;-61
2024/01/31 06:55:23;;;;;;;38.85;17.60;;;;;;;1.96;69.30;100600.53;5114425;27;20117;-59
2024/01/31 06:57:48;;;;;;;36.97;17.02;;;;;;;2.19;68.71;100605.06;5170683;27;20383;-59
2024/01/31 07:00:15;;;;;;;34.05;16.73;;;;;;;2.34;68.24;100610.75;5171163;27;20026;-60
2024/01/31 07:02:41;;;;;;;37.38;16.38;;;;;;;2.47;67.47;100611.19;5172376;27;20043;-57
2024/01/31 07:05:07;;;;;;;34.10;15.40;;;;;;;2.40;67.08;100606.09;5167778;27;20105;-59
2024/01/31 07:07:33;;;;;;;35.58;16.67;;;;;;;2.28;67.12;100590.69;5168321;27;20334;-57
2024/01/31 07:09:59;;;;;;;35.13;15.90;;;;;;;2.32;67.18;100589.66;5171291;27;20489;-57
2024/01/31 07:12:24;;;;;;;33.08;15.70;;;;;;;2.37;67.25;100605.38;5171762;27;20121;-57
2024/01/31 07:14:50;;;;;;;29.45;15.00;;;;;;;2.03;67.24;100536.03;5171457;27;20438;-57
2024/01/31 07:17:16;;;;;;;29.10;14.32;;;;;;;2.29;67.11;100584.47;5096854;27;20029;-61
2024/01/31 07:19:44;;;;;;;32.80;14.35;;;;;;;2.37;66.49;100589.50;5065038;28;20555;-63
2024/01/31 07:22:10;;;;;;;34.20;16.40;;;;;;;2.32;67.18;100592.28;5065734;28;20432;-61
2024/01/31 07:24:36;;;;;;;34.58;16.83;;;;;;;2.29;66.93;100584.47;5065228;28;20111;-62
2024/01/31 07:27:02;;;;;;;32.80;15.30;;;;;;;2.26;67.37;100584.59;5064713;28;20568;-62
2024/01/31 07:29:29;;;;;;;28.42;14.32;;;;;;;2.24;66.85;100589.06;5064914;28;20037;-62
2024/01/31 07:31:54;;;;;;;30.02;14.40;;;;;;;2.25;67.22;100590.78;5163011;27;20097;-61
2024/01/31 07:34:20;;;;;;;35.63;16.60;;;;;;;2.29;67.25;100584.47;5170564;27;20113;-60
2024/01/31 07:36:45;;;;;;;32.55;16.50;;;;;;;2.30;67.37;100578.28;5170975;27;20031;-61
2024/01/31 07:39:11;;;;;;;30.30;15.32;;;;;;;2.22;67.04;100570.59;5162830;27;20364;-59
2024/01/31 07:41:37;;;;;;;33.92;16.40;;;;;;;2.30;67.71;100583.56;5153846;27;20438;-60
2024/01/31 07:44:03;;;;;;;31.13;15.52;;;;;;;1.98;66.72;100522.13;5149534;27;20072;-57
2024/01/31 07:46:29;;;;;;;33.45;16.13;;;;;;;2.15;67.83;100567.28;5148767;27;20464;-60
2024/01/31 07:48:55;;;;;;;31.05;14.70;;;;;;;2.17;67.41;100576.94;5119889;27;20136;-60
2024/01/31 07:51:21;;;;;;;31.33;15.38;;;;;;;2.21;67.13;100578.59;5027365;28;20082;-54
2024/01/31 07:53:46;;;;;;;34.97;15.38;;;;;;;2.25;67.69;100572.28;5032691;28;20112;-60
2024/01/31 07:56:12;;;;;;;34.60;15.98;;;;;;;2.24;67.46;100560.00;5030333;28;20036;-55
2024/01/31 07:58:37;;;;;;;33.40;16.23;;;;;;;2.31;67.25;100550.94;5031260;28;20044;-60
2024/01/31 08:01:03;;;;;;;28.85;15.65;;;;;;;2.38;66.75;100556.88;5031656;28;20112;-55
2024/01/31 08:03:30;;;;;;;30.00;15.65;;;;;;;2.35;66.52;100557.84;5039528;28;20128;-57
2024/01/31 08:05:55;;;;;;;32.55;16.25;;;;;;;2.36;67.00;100549.00;5043190;28;20516;-61
2024/01/31 08:08:21;;;;;;;29.25;15.27;;;;;;;2.39;65.87;100556.81;5052700;27;20037;-60
2024/01/31 08:10:46;;;;;;;25.02;13.88;;;;;;;2.27;66.38;100538.75;5051587;28;20021;-58
2024/01/31 08:13:12;;;;;;;25.63;14.40;;;;;;;2.29;66.35;100545.72;5051236;28;20025;-55
2024/01/31 08:15:37;;;;;;;27.10;15.00;;;;;;;2.11;66.52;100514.63;5048548;28;20157;-55
2024/01/31 08:18:03;;;;;;;29.05;15.70;;;;;;;2.28;66.40;100540.47;5048859;28;20455;-54
2024/01/31 08:20:29;;;;;;;30.13;15.55;;;;;;;2.24;67.02;100537.06;5040235;28;20041;-53
2024/01/31 08:22:55;;;;;;;32.67;15.45;;;;;;;2.19;66.42;100520.50;5030302;28;20030;-53
2024/01/31 08:25:20;;;;;;;26.70;14.30;;;;;;;2.43;65.61;100552.28;5048922;27;20072;-59
2024/01/31 08:27:48;;;;;;;25.60;15.07;;;;;;;2.35;66.11;100547.25;5050335;27;20037;-59
2024/01/31 08:30:16;;;;;;;27.25;14.75;;;;;;;2.30;66.15;100554.50;5050591;27;20033;-57
2024/01/31 08:32:42;;;;;;;26.88;15.07;;;;;;;2.35;65.95;100557.84;5084403;27;20133;-55
2024/01/31 08:35:10;;;;;;;26.60;15.05;;;;;;;2.37;66.29;100552.50;5097711;27;20036;-56
2024/01/31 08:37:36;;;;;;;28.33;16.00;;;;;;;2.18;66.24;100505.56;5053527;27;20024;-53
2024/01/31 08:40:01;;;;;;;28.30;15.82;;;;;;;2.41;65.39;100533.84;5050687;28;20036;-57
2024/01/31 08:42:29;;;;;;;27.92;16.67;;;;;;;2.36;65.99;100525.19;5049998;27;20037;-56
2024/01/31 08:44:55;;;;;;;34.45;16.67;;;;;;;2.34;65.96;100524.41;5049882;28;20056;-51
2024/01/31 08:47:21;;;;;;;31.95;18.48;;;;;;;2.34;65.92;100521.75;5050082;28;20025;-54
2024/01/31 08:49:48;;;;;;;29.38;16.58;;;;;;;2.36;65.93;100517.28;5046205;28;20380;-54
2024/01/31 08:52:14;;;;;;;28.38;16.52;;;;;;;2.36;65.58;100501.41;5029383;28;20033;-56
2024/01/31 08:54:40;;;;;;;25.25;15.77;;;;;;;2.36;65.46;100497.94;5029239;28;20128;-53
2024/01/31 08:57:05;;;;;;;25.67;15.10;;;;;;;2.33;64.80;100485.69;5036657;28;20025;-59
2024/01/31 08:59:31;;;;;;;25.42;15.77;;;;;;;2.37;64.62;100492.56;5049652;28;20313;-60
2024/01/31 09:01:57;;;;;;;25.77;15.55;;;;;;;2.33;64.63;100490.13;5046538;28;20025;-58
2024/01/31 09:04:22;;;;;;;25.58;15.32;;;;;;;2.01;65.03;100448.06;5048162;27;20377;-60
2024/01/31 09:06:48;;;;;;;27.95;16.05;;;;;;;2.20;65.02;100495.81;5042175;27;20028;-56
2024/01/31 09:09:13;;;;;;;25.55;15.68;;;;;;;2.09;65.01;100469.78;5039110;28;20037;-62
2024/01/31 09:11:39;;;;;;;29.33;17.33;;;;;;;2.18;65.35;100486.25;5040797;27;20048;-59
2024/01/31 09:14:05;;;;;;;31.10;17.30;;;;;;;2.17;64.94;100468.63;5039831;28;20090;-57
2024/01/31 09:16:30;;;;;;;30.83;17.40;;;;;;;2.17;65.49;100468.63;5037987;28;20441;-59
2024/01/31 09:18:56;;;;;;;27.65;16.92;;;;;;;2.11;65.17;100448.59;5039646;28;20447;-59
2024/01/31 09:21:27;;;;;;;28.73;16.48;;;;;;;1.84;65.15;100412.53;5037535;28;20024;-58
2024/01/31 09:23:56;;;;;;;26.77;16.95;;;;;;;1.96;64.85;100424.44;5038353;28;20022;-56
2024/01/31 09:26:22;;;;;;;25.23;14.18;;;;;;;2.10;64.70;100439.78;5038684;27;20459;-57
2024/01/31 09:28:49;;;;;;;25.48;15.13;;;;;;;1.98;64.67;100434.97;5038667;28;20177;-58
2024/01/31 09:31:25;;;;;;;21.10;13.88;;;;;;;2.02;64.92;100428.66;5040756;27;20319;-57
2024/01/31 09:33:53;;;;;;;23.90;13.85;;;;;;;2.00;65.15;100420.78;5038075;28;20516;-58
2024/01/31 09:36:18;;;;;;;21.48;13.70;;;;;;;2.01;64.56;100390.78;5047277;28;20029;-57
2024/01/31 09:38:47;;;;;;;23.95;14.10;;;;;;;2.10;64.55;100399.31;5038274;28;20033;-58
2024/01/31 09:41:12;;;;;;;27.63;15.75;;;;;;;2.05;64.69;100415.34;5039852;28;20037;-54
2024/01/31 09:43:38;;;;;;;28.15;15.88;;;;;;;2.01;64.54;100385.50;5039871;27;20098;-57
2024/01/31 09:46:06;;;;;;;27.33;16.20;;;;;;;2.06;64.72;100382.72;5040864;27;20178;-54
2024/01/31 09:48:31;;;;;;;29.52;16.92;;;;;;;2.04;64.65;100384.56;5036711;28;20117;-53
2024/01/31 09:50:59;;;;;;;30.65;18.15;;;;;;;2.05;64.93;100399.47;5039169;28;20113;-58
2024/01/31 09:53:25;;;;;;;34.28;18.15;;;;;;;2.06;65.08;100382.72;5037909;28;20129;-55
2024/01/31 09:55:55;;;;;;;30.55;17.88;;;;;;;2.11;65.12;100383.41;5038201;28;20021;-55
2024/01/31 09:58:21;;;;;;;32.35;18.23;;;;;;;2.08;64.96;100395.88;5039975;27;20060;-58
2024/01/31 10:00:47;;;;;;;27.60;16.63;;;;;;;2.09;64.64;100385.25;5035950;28;20029;-59
2024/01/31 10:03:12;;;;;;;30.15;17.30;;;;;;;2.07;64.64;100400.28;5048140;28;20437;-58
2024/01/31 10:05:38;;;;;;;27.02;16.33;;;;;;;2.05;64.94;100394.19;5047576;28;20032;-57
2024/01/31 10:08:04;;;;;;;23.17;14.60;;;;;;;2.10;64.48;100401.97;5049108;28;20036;-54
2024/01/31 10:10:30;;;;;;;23.92;14.30;;;;;;;2.14;63.79;100417.63;5048873;28;20025;-53
2024/01/31 10:12:56;;;;;;;21.13;14.52;;;;;;;2.06;64.12;100393.28;5048056;28;20145;-52
2024/01/31 10:15:21;;;;;;;22.02;15.25;;;;;;;2.08;64.20;100396.72;5039236;28;20363;-51
2024/01/31 10:17:47;;;;;;;25.88;15.43;;;;;;;2.06;64.33;100385.34;5039688;28;20025;-52
2024/01/31 10:20:16;;;;;;;20.63;13.80;;;;;;;2.27;63.58;100390.78;5035777;28;20433;-55
2024/01/31 10:22:44;;;;;;;20.33;13.75;;;;;;;2.26;63.09;100389.06;5046034;28;20032;-52
2024/01/31 10:25:15;;;;;;;21.73;14.45;;;;;;;2.19;64.11;100384.94;5047608;28;20211;-55
2024/01/31 10:27:40;;;;;;;25.27;15.07;;;;;;;2.13;63.59;100372.78;5048389;28;20135;-60
2024/01/31 10:30:10;;;;;;;22.77;14.52;;;;;;;2.15;63.80;100352.47;5048583;28;20021;-55
2024/01/31 10:32:38;;;;;;;22.77;14.77;;;;;;;2.13;63.80;100349.03;5049116;28;20033;-60
2024/01/31 10:35:05;;;;;;;21.00;14.23;;;;;;;2.32;63.23;100372.97;5048768;28;20051;-59
2024/01/31 10:37:31;;;;;;;20.45;14.02;;;;;;;2.26;63.36;100341.50;5047831;28;20029;-55
2024/01/31 10:39:59;;;;;;;21.83;14.57;;;;;;;2.44;63.32;100343.44;5047458;28;20064;-58
2024/01/31 10:42:26;;;;;;;22.38;14.20;;;;;;;2.38;63.49;100338.38;5048675;28;20039;-59
2024/01/31 10:44:52;;;;;;;22.10;14.07;;;;;;;2.41;63.21;100324.19;5047598;27;20036;-55
2024/01/31 10:47:18;;;;;;;20.27;13.77;;;;;;;2.41;63.02;100309.22;5045505;28;20460;-57
2024/01/31 10:49:44;;;;;;;19.60;13.18;;;;;;;2.56;62.60;100317.44;5036716;28;20060;-56
2024/01/31 10:52:15;;;;;;;19.52;13.10;;;;;;;2.64;62.55;100310.06;5040150;28;20056;-55
2024/01/31 10:54:49;;;;;;;19.40;13.13;;;;;;;2.67;61.74;100291.44;5039169;28;20036;-59
2024/01/31 10:57:16;;;;;;;19.08;13.35;;;;;;;2.69;61.71;100296.66;5036607;28;20062;-61
2024/01/31 10:59:41;;;;;;;20.52;13.00;;;;;;;2.67;62.07;100296.75;5036247;28;20036;-61
2024/01/31 11:02:16;;;;;;;26.67;14.57;;;;;;;2.44;62.18;100244.78;5038861;28;20029;-62
2024/01/31 11:04:42;;;;;;;21.90;14.48;;;;;;;2.87;63.60;100295.03;5038290;28;20345;-62
2024/01/31 11:07:20;;;;;;;19.73;13.13;;;;;;;3.08;61.83;100305.66;5030689;28;20033;-62
2024/01/31 11:09:47;;;;;;;19.70;13.80;;;;;;;2.99;61.39;100305.13;5030900;28;20036;-62
2024/01/31 11:12:17;;;;;;;22.60;13.63;;;;;;;2.76;61.73;100270.84;5041788;28;20052;-65
2024/01/31 11:14:46;;;;;;;20.45;14.27;;;;;;;2.89;62.11;100282.63;5036216;28;20520;-63
2024/01/31 11:17:19;;;;;;;21.73;13.95;;;;;;;2.97;61.83;100291.13;5036517;28;20026;-62
2024/01/31 11:19:51;;;;;;;21.52;14.55;;;;;;;2.91;61.83;100290.50;5047046;28;20036;-63
2024/01/31 11:22:17;;;;;;;21.20;13.65;;;;;;;2.81;62.27;100298.81;5035174;28;20056;-62
2024/01/31 11:24:51;;;;;;;20.90;14.30;;;;;;;2.80;61.76;100301.50;5028052;28;20025;-63